This is the latest recevied weather packets stored in our database for station/object N4PWG. If no packets are shown the sender has not sent any weather packets the latest 10 day(s).
| Time | Temp. | Humidity | Pressure | Rain* | Wind** | Luminosity | Snow |
|---|---|---|---|---|---|---|---|
| 1777982532 | 17.22° C | 80% | 1025.9 hPa | 0 mm | - | 18 W/m² | - |
| 1777982230 | 16.67° C | 80% | 1025.6 hPa | 0 mm | - | 18 W/m² | - |
| 1777981928 | 16.67° C | 81% | 1025.5 hPa | 0 mm | - | 18 W/m² | - |
| 1777980353 | 16.11° C | 82% | 1025 hPa | 0 mm | - | 2 W/m² | - |
| 1777980051 | 16.11° C | 82% | 1025 hPa | 0 mm | - | 2 W/m² | - |
| 1777979750 | 16.11° C | 82% | 1025.4 hPa | 0 mm | - | 1 W/m² | - |
| 1777979446 | 16.11° C | 82% | 1025.3 hPa | 0 mm | - | 0 W/m² | - |
| 1777979143 | 16.11° C | 82% | 1025.2 hPa | 0 mm | - | 0 W/m² | - |
| 1777978839 | 16.11° C | 82% | 1025.2 hPa | 0 mm | - | 0 W/m² | - |
| 1777978536 | 15.56° C | 83% | 1025 hPa | 0 mm | - | 0 W/m² | - |
| 1777978232 | 15.56° C | 83% | 1025.3 hPa | 0 mm | - | 0 W/m² | - |
| 1777977929 | 15.56° C | 84% | 1025.3 hPa | 0 mm | - | 0 W/m² | - |
| 1777977626 | 15.56° C | 83% | 1025.4 hPa | 0 mm | - | 0 W/m² | - |
| 1777977323 | 15.56° C | 83% | 1025.4 hPa | 0 mm | - | 0 W/m² | - |
| 1777977021 | 15.56° C | 83% | 1025.1 hPa | 0 mm | - | 0 W/m² | - |
| 1777976717 | 15.56° C | 83% | 1025.1 hPa | 0 mm | - | 0 W/m² | - |
| 1777976415 | 15.56° C | 82% | 1025.2 hPa | 0 mm | - | 0 W/m² | - |
| 1777976114 | 15.56° C | 81% | 1025.1 hPa | 0 mm | - | 0 W/m² | - |
| 1777975809 | 15.56° C | 81% | 1025.1 hPa | 0 mm | - | 0 W/m² | - |
| 1777975507 | 16.11° C | 81% | 1025.2 hPa | 0 mm | - | 0 W/m² | - |
| 1777973727 | 16.67° C | 76% | 1025.5 hPa | 0 mm | - | 0 W/m² | - |
| 1777973424 | 16.67° C | 76% | 1025.5 hPa | 0 mm | - | 0 W/m² | - |
| 1777973121 | 16.67° C | 76% | 1025.3 hPa | 0 mm | - | 0 W/m² | - |
| 1777972820 | 16.67° C | 77% | 1025.4 hPa | 0 mm | - | 0 W/m² | - |
| 1777972516 | 16.67° C | 76% | 1025.4 hPa | 0 mm | - | 0 W/m² | - |
* Rain latest hour (hover to see other rain measurements)
** Current wind speed in m/s (hover to see current wind gust speed)